Time;durP1;ratioP1;P1;durP2;ratioP2;P2;SDS_P1;SDS_P2;PMS_P1;PMS_P2;Temp;Humidity;BMP_temperature;BMP_pressure;BME280_temperature;BME280_humidity;BME280_pressure;Samples;Min_cycle;Max_cycle;Signal;HPM_P1;HPM_P2
2021/12/08 00:01:49;;;;;;;0.50;0.50;;;;;;;1.98;84.17;95078.66;5117289;28;20385;-65
2021/12/08 00:04:15;;;;;;;0.57;0.55;;;;;;;2.05;83.93;95083.63;5117315;28;20024;-61
2021/12/08 00:06:41;;;;;;;0.60;0.50;;;;;;;2.09;84.00;95080.06;5117447;27;20111;-65
2021/12/08 00:09:27;;;;;;;0.68;0.50;;;;;;;2.13;83.97;95090.28;5117356;28;20108;-65
2021/12/08 00:14:36;;;;;;;0.60;0.60;;;;;;;2.25;83.80;95101.13;5117613;28;20034;-61
2021/12/08 00:17:03;;;;;;;0.50;0.50;;;;;;;2.27;83.45;95100.22;5117074;28;20027;-66
2021/12/08 00:19:29;;;;;;;0.60;0.60;;;;;;;2.30;83.00;95113.91;5116851;28;20050;-65
2021/12/08 00:21:55;;;;;;;0.73;0.40;;;;;;;2.31;82.99;95113.88;5117086;28;20381;-66
2021/12/08 00:24:21;;;;;;;0.45;0.45;;;;;;;2.37;83.27;95115.44;5117118;28;20020;-65
2021/12/08 00:26:46;;;;;;;0.60;0.57;;;;;;;2.36;82.58;95122.34;5116924;28;20058;-67
2021/12/08 00:29:12;;;;;;;0.65;0.50;;;;;;;2.38;82.76;95127.47;5115644;28;20477;-64
2021/12/08 00:31:38;;;;;;;0.38;0.38;;;;;;;2.43;82.70;95117.84;5116865;28;20047;-64
2021/12/08 00:34:03;;;;;;;0.47;0.47;;;;;;;2.47;82.47;95118.59;5116843;28;20373;-63
2021/12/08 00:36:40;;;;;;;0.50;0.50;;;;;;;2.42;82.56;95117.88;5116738;28;20024;-67
2021/12/08 00:39:06;;;;;;;0.60;0.60;;;;;;;2.32;82.50;95112.16;5116712;28;20019;-61
2021/12/08 00:41:31;;;;;;;0.93;0.68;;;;;;;2.34;82.90;95126.69;5116523;28;20031;-61
2021/12/08 00:43:57;;;;;;;2.17;0.80;;;;;;;2.43;83.21;95132.47;5116609;27;20496;-66
2021/12/08 00:46:22;;;;;;;0.60;0.60;;;;;;;2.35;82.10;95124.97;5116685;28;20019;-65
2021/12/08 00:48:50;;;;;;;0.73;0.65;;;;;;;2.47;82.37;95139.25;5116478;27;20096;-65
2021/12/08 00:51:18;;;;;;;0.50;0.50;;;;;;;2.52;81.93;95133.06;5116473;28;20016;-65
2021/12/08 00:53:45;;;;;;;0.40;0.40;;;;;;;2.57;82.09;95132.94;5116651;28;20024;-62
2021/12/08 00:56:11;;;;;;;0.50;0.50;;;;;;;2.52;81.98;95130.50;5116416;28;20030;-67
2021/12/08 00:58:37;;;;;;;0.80;0.70;;;;;;;2.56;82.41;95127.81;5116444;28;20035;-65
2021/12/08 01:01:04;;;;;;;0.73;0.60;;;;;;;2.63;82.11;95137.06;5116250;28;20423;-62
2021/12/08 01:03:30;;;;;;;0.98;0.90;;;;;;;2.66;82.48;95129.25;5116141;28;20020;-64
2021/12/08 01:05:57;;;;;;;1.25;1.15;;;;;;;2.72;82.38;95135.97;5115424;28;20110;-62
2021/12/08 01:08:27;;;;;;;0.90;0.88;;;;;;;2.80;82.70;95133.16;5116245;28;20020;-65
2021/12/08 01:10:57;;;;;;;3.83;1.23;;;;;;;2.88;82.59;95138.94;5116282;28;20043;-65
2021/12/08 01:13:24;;;;;;;1.20;1.02;;;;;;;2.93;82.73;95129.31;5116249;28;20024;-63
2021/12/08 01:15:52;;;;;;;1.20;1.10;;;;;;;3.00;82.63;95133.41;5115956;28;20062;-63
2021/12/08 01:18:22;;;;;;;3.42;0.88;;;;;;;3.06;82.14;95139.25;5116110;28;20103;-64
2021/12/08 01:20:49;;;;;;;1.10;1.00;;;;;;;3.11;82.01;95135.66;5115872;28;20515;-64
2021/12/08 01:23:15;;;;;;;1.63;0.98;;;;;;;3.14;81.56;95137.28;5115949;28;20377;-64
2021/12/08 01:25:41;;;;;;;1.10;1.00;;;;;;;3.19;81.49;95144.91;5115781;28;20047;-64
2021/12/08 01:28:07;;;;;;;1.73;0.98;;;;;;;3.17;82.04;95150.13;5115761;28;20027;-64
2021/12/08 01:30:33;;;;;;;2.05;0.88;;;;;;;3.18;81.89;95148.38;5115861;28;20031;-62
2021/12/08 01:32:59;;;;;;;1.25;0.95;;;;;;;3.22;82.17;95144.81;5115772;28;20494;-65
2021/12/08 01:35:25;;;;;;;1.10;0.90;;;;;;;3.16;81.46;95156.16;5115705;28;20049;-65
2021/12/08 01:37:51;;;;;;;0.80;0.80;;;;;;;3.19;81.42;95144.91;5115551;28;20073;-63
2021/12/08 01:40:17;;;;;;;1.90;0.90;;;;;;;3.20;81.66;95149.19;5115547;28;20027;-62
2021/12/08 01:42:47;;;;;;;0.60;0.60;;;;;;;3.25;81.58;95148.13;5115475;28;20426;-64
2021/12/08 01:48:10;;;;;;;0.68;0.68;;;;;;;3.18;80.10;95146.63;5115828;28;20275;-65
2021/12/08 01:50:38;;;;;;;2.15;0.60;;;;;;;3.10;80.36;95154.63;5115400;28;20088;-64
2021/12/08 01:53:06;;;;;;;0.50;0.40;;;;;;;3.00;80.55;95153.22;5115296;28;20500;-66
2021/12/08 01:55:32;;;;;;;0.50;0.50;;;;;;;2.96;81.29;95159.38;5115236;28;20028;-66
2021/12/08 01:57:58;;;;;;;0.50;0.50;;;;;;;2.87;80.98;95163.94;5115278;28;20149;-61
2021/12/08 02:00:52;;;;;;;0.50;0.50;;;;;;;2.81;81.45;95155.50;5115158;28;20031;-64
2021/12/08 02:03:18;;;;;;;0.50;0.50;;;;;;;2.88;81.32;95165.59;5114977;28;20393;-65
2021/12/08 02:05:44;;;;;;;0.70;0.70;;;;;;;2.92;81.28;95168.94;5115062;28;20110;-65
2021/12/08 02:08:10;;;;;;;0.60;0.57;;;;;;;2.99;81.44;95174.78;5115041;28;20440;-64
2021/12/08 02:10:38;;;;;;;0.60;0.60;;;;;;;3.06;81.19;95173.69;5114993;28;20106;-63
2021/12/08 02:13:05;;;;;;;1.13;0.60;;;;;;;3.07;81.83;95166.81;5114983;28;20047;-64
2021/12/08 02:15:31;;;;;;;0.73;0.73;;;;;;;3.10;81.61;95184.81;5114847;28;20046;-62
2021/12/08 02:17:57;;;;;;;0.45;0.45;;;;;;;3.13;79.90;95176.97;5114893;28;20485;-62
2021/12/08 02:20:26;;;;;;;2.05;0.70;;;;;;;3.11;79.46;95176.16;5114442;28;20047;-62
2021/12/08 02:22:51;;;;;;;0.73;0.70;;;;;;;3.05;79.67;95172.00;5114711;28;20020;-60
2021/12/08 02:25:20;;;;;;;0.65;0.60;;;;;;;2.93;79.19;95177.53;5113373;28;20374;-62
2021/12/08 02:27:47;;;;;;;0.70;0.70;;;;;;;2.88;77.92;95175.94;5114582;28;20023;-66
2021/12/08 02:49:03;;;;;;;0.40;0.40;;;;;;;2.78;78.34;95196.03;5114279;28;20495;-61
2021/12/08 02:51:28;;;;;;;0.63;0.63;;;;;;;2.81;78.54;95192.50;5114223;28;20032;-62
2021/12/08 02:53:54;;;;;;;1.05;0.50;;;;;;;2.80;77.92;95187.41;5114285;28;20030;-62
2021/12/08 02:56:20;;;;;;;0.50;0.50;;;;;;;2.86;78.19;95190.63;5114113;28;20057;-64
2021/12/08 02:58:47;;;;;;;0.50;0.50;;;;;;;2.90;77.22;95192.25;5114198;28;20020;-64
2021/12/08 03:01:13;;;;;;;0.55;0.55;;;;;;;2.94;76.04;95203.31;5113980;28;20031;-65
2021/12/08 03:03:39;;;;;;;2.80;0.60;;;;;;;2.91;76.22;95211.16;5114030;28;20099;-62
2021/12/08 03:06:05;;;;;;;0.60;0.60;;;;;;;2.97;75.21;95210.13;5113941;28;20430;-63
2021/12/08 03:08:31;;;;;;;1.50;0.57;;;;;;;2.99;76.11;95214.38;5113979;28;20062;-62
2021/12/08 03:10:58;;;;;;;0.95;0.70;;;;;;;2.98;79.00;95209.25;5113933;28;20024;-62
2021/12/08 03:13:32;;;;;;;0.90;0.60;;;;;;;3.00;76.38;95217.81;5113885;27;20070;-62
2021/12/08 03:15:58;;;;;;;1.40;0.75;;;;;;;2.95;75.35;95222.28;5113922;28;20039;-65
2021/12/08 03:18:31;;;;;;;0.57;0.57;;;;;;;2.96;75.57;95226.53;5113577;28;20039;-64
2021/12/08 03:20:57;;;;;;;0.57;0.57;;;;;;;2.90;75.41;95227.56;5113496;28;20100;-64
2021/12/08 03:23:29;;;;;;;0.57;0.50;;;;;;;2.93;75.72;95230.06;5113804;28;20027;-64
2021/12/08 03:25:57;;;;;;;1.05;0.70;;;;;;;2.93;76.67;95235.22;5113683;28;20028;-64
2021/12/08 03:28:28;;;;;;;0.50;0.50;;;;;;;2.94;77.62;95231.75;5113191;28;20027;-65
2021/12/08 03:33:22;;;;;;;0.77;0.60;;;;;;;2.95;76.71;95237.78;5113601;28;20174;-63
2021/12/08 03:35:49;;;;;;;0.50;0.50;;;;;;;2.99;76.02;95236.78;5113524;28;20536;-61
2021/12/08 03:38:16;;;;;;;0.50;0.50;;;;;;;3.04;74.82;95252.97;5113472;28;20027;-62
2021/12/08 03:40:42;;;;;;;0.60;0.60;;;;;;;3.05;76.15;95246.94;5113358;28;20024;-65
2021/12/08 03:43:08;;;;;;;0.52;0.52;;;;;;;3.08;74.03;95248.59;5113416;28;20043;-65
2021/12/08 03:45:37;;;;;;;0.52;0.52;;;;;;;3.07;75.03;95252.06;5113601;28;20031;-64
2021/12/08 03:48:09;;;;;;;0.97;0.60;;;;;;;3.13;72.55;95257.06;5113539;28;20165;-61
2021/12/08 03:50:38;;;;;;;0.60;0.52;;;;;;;3.09;73.87;95258.03;5113420;28;20020;-63
2021/12/08 03:53:05;;;;;;;1.27;0.70;;;;;;;3.12;74.52;95255.34;5113360;28;20048;-61
2021/12/08 03:55:31;;;;;;;0.68;0.60;;;;;;;3.10;75.82;95259.75;5113494;28;20052;-65
2021/12/08 03:57:57;;;;;;;0.60;0.55;;;;;;;3.08;76.74;95261.50;5113324;28;20016;-64
2021/12/08 04:00:27;;;;;;;0.95;0.80;;;;;;;3.03;73.60;95259.06;5113251;28;20475;-62
2021/12/08 04:02:53;;;;;;;0.57;0.57;;;;;;;3.03;72.50;95269.38;5113282;28;20031;-62
2021/12/08 04:05:30;;;;;;;0.60;0.60;;;;;;;3.02;73.39;95265.13;5113252;28;20034;-61
2021/12/08 04:08:02;;;;;;;0.50;0.50;;;;;;;3.01;73.68;95268.59;5113408;28;20043;-59
2021/12/08 04:10:28;;;;;;;0.70;0.70;;;;;;;2.99;73.50;95271.22;5113338;28;20024;-63
2021/12/08 04:12:55;;;;;;;0.50;0.50;;;;;;;2.98;73.92;95276.44;5113235;28;20042;-65
2021/12/08 04:15:25;;;;;;;0.43;0.43;;;;;;;2.98;74.87;95274.69;5113158;28;20024;-66
2021/12/08 04:17:52;;;;;;;0.65;0.65;;;;;;;3.08;73.87;95284.75;5113188;28;20618;-61
2021/12/08 04:20:24;;;;;;;0.50;0.50;;;;;;;3.08;73.32;95287.34;5112829;28;20105;-63
2021/12/08 04:22:52;;;;;;;0.68;0.68;;;;;;;3.05;71.54;95296.03;5113202;28;20562;-63
2021/12/08 04:25:23;;;;;;;1.00;0.70;;;;;;;3.05;71.45;95302.94;5113234;28;20197;-59
2021/12/08 04:27:51;;;;;;;0.70;0.60;;;;;;;3.02;71.48;95298.72;5113157;28;20085;-62
2021/12/08 04:30:24;;;;;;;0.60;0.60;;;;;;;3.05;72.65;95302.94;5113026;28;20085;-65
2021/12/08 04:32:50;;;;;;;0.50;0.50;;;;;;;3.02;72.65;95309.03;5113139;28;20469;-60
2021/12/08 04:35:18;;;;;;;0.65;0.65;;;;;;;2.99;70.58;95311.72;5113141;28;20019;-61
2021/12/08 04:37:48;;;;;;;0.70;0.70;;;;;;;3.03;71.87;95323.66;5113055;28;20035;-61
2021/12/08 04:43:01;;;;;;;0.82;0.65;;;;;;;3.01;72.19;95315.94;5116706;28;20248;-62
2021/12/08 04:45:49;;;;;;;0.80;0.70;;;;;;;2.97;69.78;95326.41;5116835;28;20024;-62
2021/12/08 04:48:28;;;;;;;0.70;0.70;;;;;;;2.95;71.96;95329.03;5116627;28;20081;-62
2021/12/08 04:51:37;;;;;;;0.77;0.60;;;;;;;2.87;71.53;95325.81;5116732;28;20028;-62
2021/12/08 05:09:45;;;;;;;0.60;0.60;;;;;;;3.02;69.57;95342.63;5116314;28;20462;-61
2021/12/08 05:12:20;;;;;;;0.80;0.80;;;;;;;3.02;69.32;95340.06;5116282;28;20015;-61
2021/12/08 05:14:53;;;;;;;0.95;0.65;;;;;;;3.07;71.04;95345.09;5116197;28;20030;-61
2021/12/08 05:17:37;;;;;;;0.80;0.77;;;;;;;3.05;73.76;95350.31;5115982;28;20027;-63
2021/12/08 05:20:16;;;;;;;0.60;0.60;;;;;;;3.01;72.06;95354.69;5115910;28;20127;-60
2021/12/08 05:22:46;;;;;;;0.70;0.70;;;;;;;3.02;72.26;95361.56;5115970;28;20032;-63
2021/12/08 05:25:13;;;;;;;;;;;;;;;2.95;71.99;95365.19;5115135;28;20055;-65
2021/12/08 05:27:46;;;;;;;1.00;0.90;;;;;;;2.93;73.49;95366.13;5115805;28;20357;-61
2021/12/08 05:30:17;;;;;;;0.80;0.80;;;;;;;2.94;70.64;95376.41;5115787;28;20027;-63
2021/12/08 05:32:43;;;;;;;0.80;0.80;;;;;;;2.99;71.17;95384.91;5115933;28;20461;-62
2021/12/08 05:35:13;;;;;;;0.88;0.88;;;;;;;2.93;74.48;95385.06;5115734;28;20030;-65
2021/12/08 05:37:41;;;;;;;1.25;1.15;;;;;;;2.80;73.77;95381.94;5115742;28;20058;-63
2021/12/08 05:40:13;;;;;;;0.90;0.85;;;;;;;2.86;74.03;95393.88;5115645;28;20106;-62
2021/12/08 05:42:39;;;;;;;2.10;1.50;;;;;;;2.84;73.11;95398.22;5115818;28;20024;-62
2021/12/08 05:45:09;;;;;;;1.95;1.70;;;;;;;2.90;74.03;95409.25;5115475;28;20385;-65
2021/12/08 05:47:35;;;;;;;1.80;1.60;;;;;;;3.02;74.12;95404.66;5115476;28;20106;-60
2021/12/08 05:50:05;;;;;;;26.20;13.18;;;;;;;3.09;74.12;95415.66;5115143;28;20478;-61
2021/12/08 05:52:30;;;;;;;3.80;2.60;;;;;;;3.12;72.61;95411.25;5115313;28;20023;-65
2021/12/08 05:54:56;;;;;;;1.85;1.20;;;;;;;3.14;71.66;95414.66;5115263;28;20633;-64
2021/12/08 05:57:32;;;;;;;1.60;1.20;;;;;;;3.16;70.70;95417.19;5115285;28;20027;-65
2021/12/08 05:59:58;;;;;;;1.30;1.00;;;;;;;3.20;70.43;95417.97;5115246;28;20023;-62
2021/12/08 06:02:32;;;;;;;1.20;1.10;;;;;;;3.21;71.99;95430.00;5115184;28;20061;-64
2021/12/08 06:04:59;;;;;;;0.98;0.82;;;;;;;3.21;71.51;95435.16;5115122;28;20065;-63
2021/12/08 06:07:25;;;;;;;1.08;0.98;;;;;;;3.27;72.73;95443.63;5114941;28;20025;-65
2021/12/08 06:09:53;;;;;;;0.98;0.98;;;;;;;3.29;74.08;95459.09;5115069;28;20020;-63
2021/12/08 06:12:20;;;;;;;1.08;0.82;;;;;;;3.31;72.23;95456.47;5114922;27;20524;-64
2021/12/08 06:14:46;;;;;;;0.73;0.73;;;;;;;3.33;71.63;95457.25;5114912;28;20019;-63
2021/12/08 06:17:18;;;;;;;0.80;0.80;;;;;;;3.35;72.71;95458.06;5114816;28;20023;-62
2021/12/08 06:19:46;;;;;;;0.65;0.65;;;;;;;3.43;73.84;95461.28;5114695;28;20032;-59
2021/12/08 06:22:15;;;;;;;1.15;1.08;;;;;;;3.49;73.54;95465.47;5114838;28;20027;-63
2021/12/08 06:24:41;;;;;;;1.10;1.00;;;;;;;3.58;73.69;95466.94;5114739;28;20026;-63
2021/12/08 06:27:08;;;;;;;1.27;1.17;;;;;;;3.57;73.32;95476.44;5114738;28;20023;-60
2021/12/08 06:29:36;;;;;;;1.45;1.35;;;;;;;3.54;73.16;95479.97;5114653;28;20102;-64
2021/12/08 06:32:06;;;;;;;1.17;1.10;;;;;;;3.58;73.48;95472.94;5114604;28;20034;-61
2021/12/08 06:34:32;;;;;;;1.30;1.20;;;;;;;3.56;73.74;95486.81;5113282;28;20027;-61
2021/12/08 06:37:04;;;;;;;1.00;0.90;;;;;;;3.54;72.03;95489.44;5114721;28;20023;-64
2021/12/08 06:39:35;;;;;;;0.85;0.85;;;;;;;3.61;72.87;95490.16;5114468;28;20035;-62
2021/12/08 06:42:06;;;;;;;1.92;1.13;;;;;;;3.66;73.60;95490.84;5114344;28;20130;-62
2021/12/08 06:44:39;;;;;;;1.30;1.00;;;;;;;3.56;69.69;95485.09;5114493;27;20111;-64
2021/12/08 06:47:08;;;;;;;5.38;1.33;;;;;;;3.65;69.94;95502.94;5114387;28;20032;-62
2021/12/08 06:49:34;;;;;;;0.88;0.88;;;;;;;3.69;68.18;95501.13;5114432;27;20028;-63
2021/12/08 06:52:27;;;;;;;1.70;1.20;;;;;;;3.73;69.07;95504.47;5114111;28;20107;-63
2021/12/08 06:55:03;;;;;;;1.70;1.60;;;;;;;3.81;70.69;95519.78;5113783;28;20035;-63
2021/12/08 06:57:41;;;;;;;3.70;1.67;;;;;;;3.87;70.74;95511.84;5114222;28;20073;-63
2021/12/08 07:00:35;;;;;;;1.40;1.30;;;;;;;3.81;67.50;95514.59;5114077;28;20025;-62
2021/12/08 07:08:52;;;;;;;1.70;1.60;;;;;;;3.72;68.61;95526.03;5076251;28;20090;-63
2021/12/08 07:11:20;;;;;;;3.10;1.50;;;;;;;3.75;68.80;95533.72;5112884;28;20080;-65
2021/12/08 07:13:49;;;;;;;2.22;1.75;;;;;;;3.84;69.32;95542.97;5113907;28;20024;-62
2021/12/08 07:16:23;;;;;;;8.13;1.25;;;;;;;3.91;71.88;95545.34;5113893;27;20028;-66
2021/12/08 07:19:35;;;;;;;2.08;1.40;;;;;;;4.01;70.00;95545.94;5113541;28;20031;-65
2021/12/08 07:22:06;;;;;;;4.07;2.78;;;;;;;4.10;70.59;95541.41;5099564;28;20464;-63
2021/12/08 07:24:42;;;;;;;3.10;2.33;;;;;;;4.09;73.70;95547.50;5113753;28;20139;-63
2021/12/08 07:27:13;;;;;;;1.83;1.60;;;;;;;4.17;71.11;95545.53;5113693;28;20457;-65
2021/12/08 07:29:41;;;;;;;2.22;1.60;;;;;;;4.20;69.87;95548.03;5113778;28;20099;-62
2021/12/08 07:32:11;;;;;;;1.88;1.67;;;;;;;4.21;68.99;95552.31;5113601;28;20019;-62
2021/12/08 07:34:37;;;;;;;5.10;4.28;;;;;;;4.19;73.12;95553.25;5113682;28;20073;-63
2021/12/08 07:37:11;;;;;;;4.25;3.60;;;;;;;4.13;74.35;95555.09;5113576;28;20059;-61
2021/12/08 07:39:43;;;;;;;4.30;3.20;;;;;;;4.09;74.81;95563.03;5112271;28;20036;-62
2021/12/08 07:42:17;;;;;;;4.50;2.65;;;;;;;4.05;75.37;95564.84;5113388;28;20118;-64
2021/12/08 07:44:45;;;;;;;4.75;2.42;;;;;;;4.07;75.91;95569.97;5112352;28;20401;-62
2021/12/08 07:47:14;;;;;;;2.58;2.35;;;;;;;4.13;75.63;95570.63;5113466;28;20019;-63
2021/12/08 07:49:48;;;;;;;2.30;2.10;;;;;;;4.14;75.42;95572.34;5113505;28;20070;-59
2021/12/08 07:52:19;;;;;;;6.38;2.20;;;;;;;4.06;75.57;95565.69;5113513;28;20102;-62
2021/12/08 07:54:47;;;;;;;2.03;1.90;;;;;;;4.15;75.61;95573.19;5113398;28;20088;-66
2021/12/08 07:57:18;;;;;;;4.32;2.05;;;;;;;4.27;75.36;95580.59;5113428;28;20028;-64
2021/12/08 07:59:47;;;;;;;4.78;3.95;;;;;;;4.29;74.57;95576.25;5113457;28;20020;-62
2021/12/08 08:02:14;;;;;;;3.63;3.15;;;;;;;4.32;75.52;95574.44;5113291;28;20054;-62
2021/12/08 08:04:45;;;;;;;7.82;1.80;;;;;;;4.42;75.21;95579.31;5113396;28;20040;-61
2021/12/08 08:07:11;;;;;;;2.15;1.70;;;;;;;4.32;74.43;95575.31;5113211;28;20016;-64
2021/12/08 08:09:42;;;;;;;1.60;1.50;;;;;;;4.43;74.58;95582.78;5113243;28;20423;-65
2021/12/08 08:12:21;;;;;;;1.38;1.27;;;;;;;4.48;74.01;95586.06;5113365;28;20024;-62
2021/12/08 08:14:52;;;;;;;1.45;1.35;;;;;;;4.65;73.09;95583.00;5116137;28;20039;-63
2021/12/08 08:17:25;;;;;;;1.83;1.63;;;;;;;4.78;73.16;95580.88;5117207;28;20031;-62
2021/12/08 08:19:50;;;;;;;1.65;1.50;;;;;;;4.94;73.27;95583.00;5117030;28;20047;-63
2021/12/08 08:22:21;;;;;;;2.60;1.85;;;;;;;5.13;72.37;95598.81;5117112;28;20566;-67
2021/12/08 08:24:48;;;;;;;;;;;;;;;5.09;71.51;95594.59;5117578;28;20389;-60
2021/12/08 08:27:14;;;;;;;2.20;1.55;;;;;;;5.16;71.28;95588.38;5117018;28;19913;-65
2021/12/08 08:29:40;;;;;;;1.23;1.20;;;;;;;5.29;71.23;95593.13;5115875;28;20069;-63
2021/12/08 08:32:11;;;;;;;1.30;1.20;;;;;;;5.46;69.42;95589.16;5117145;28;20491;-63
2021/12/08 08:34:41;;;;;;;1.00;0.95;;;;;;;5.61;69.01;95586.06;5117157;28;20100;-64
2021/12/08 08:37:11;;;;;;;1.27;1.10;;;;;;;5.75;67.61;95590.75;5116923;28;20112;-65
2021/12/08 08:39:44;;;;;;;1.60;1.17;;;;;;;5.93;68.57;95586.69;5116242;28;20267;-64
2021/12/08 08:42:16;;;;;;;1.20;1.02;;;;;;;6.17;67.66;95586.75;5116640;28;20388;-62
2021/12/08 08:45:05;;;;;;;1.40;1.30;;;;;;;6.46;67.37;95586.63;5116759;28;20120;-66
2021/12/08 08:47:53;;;;;;;2.45;1.50;;;;;;;6.57;67.36;95588.81;5116735;27;20380;-64
2021/12/08 08:50:48;;;;;;;3.40;1.20;;;;;;;6.70;62.38;95581.41;5116575;28;20031;-63
2021/12/08 08:53:15;;;;;;;3.28;1.52;;;;;;;6.73;60.61;95583.88;5108891;28;20043;-62
2021/12/08 08:55:49;;;;;;;1.90;1.40;;;;;;;6.77;60.31;95577.66;5116398;27;20015;-62
2021/12/08 08:58:15;;;;;;;1.75;1.40;;;;;;;6.81;61.94;95581.00;5116398;27;20070;-61
2021/12/08 09:00:52;;;;;;;2.00;1.60;;;;;;;6.78;60.96;95578.50;5116200;28;20034;-64
2021/12/08 09:03:29;;;;;;;2.58;1.35;;;;;;;6.72;60.67;95578.75;5116269;28;20023;-64
2021/12/08 09:05:59;;;;;;;1.90;1.67;;;;;;;6.67;58.94;95584.13;5116281;28;20024;-62
2021/12/08 09:08:28;;;;;;;2.00;1.38;;;;;;;6.62;57.73;95580.84;5115025;28;20636;-62
2021/12/08 09:11:10;;;;;;;2.20;1.58;;;;;;;6.68;62.25;95578.00;5116186;28;20485;-64
2021/12/08 09:13:41;;;;;;;1.88;1.75;;;;;;;6.92;62.09;95580.56;5116123;28;20028;-61
2021/12/08 09:16:15;;;;;;;2.80;1.67;;;;;;;7.23;59.45;95570.72;5116110;28;20541;-65
2021/12/08 09:18:55;;;;;;;2.50;1.73;;;;;;;7.35;56.33;95567.63;5116057;28;20027;-64
2021/12/08 09:21:29;;;;;;;1.30;1.20;;;;;;;7.29;56.21;95562.69;5115934;28;20047;-65
2021/12/08 09:24:03;;;;;;;2.08;1.73;;;;;;;7.21;59.14;95560.38;5115994;28;20074;-62
2021/12/08 09:26:32;;;;;;;1.73;1.35;;;;;;;7.42;55.95;95566.47;5115334;27;20384;-61
2021/12/08 09:29:04;;;;;;;1.70;1.50;;;;;;;7.63;56.21;95561.28;5115989;28;20164;-62
2021/12/08 09:31:41;;;;;;;1.73;1.40;;;;;;;7.64;57.79;95565.56;5115805;28;20024;-62
2021/12/08 09:34:21;;;;;;;1.45;1.35;;;;;;;7.63;56.78;95570.84;5115912;28;20480;-63
2021/12/08 09:36:53;;;;;;;1.88;1.30;;;;;;;7.51;56.66;95564.38;5115632;28;20032;-66
2021/12/08 09:39:32;;;;;;;1.60;1.50;;;;;;;7.52;55.60;95558.25;5115667;28;20485;-62
2021/12/08 09:42:09;;;;;;;1.58;1.42;;;;;;;7.64;56.20;95570.78;5115563;28;20020;-63
2021/12/08 09:44:48;;;;;;;1.55;1.23;;;;;;;7.80;56.48;95568.38;5115738;28;20369;-63
2021/12/08 09:47:14;;;;;;;1.63;1.40;;;;;;;7.79;54.54;95569.28;5115448;28;20110;-62
2021/12/08 09:49:41;;;;;;;1.30;1.20;;;;;;;7.77;57.18;95572.88;5115427;28;20055;-59
2021/12/08 09:52:08;;;;;;;1.70;1.40;;;;;;;7.84;55.54;95569.09;5115474;28;20016;-62
2021/12/08 09:54:37;;;;;;;1.88;1.65;;;;;;;7.76;55.77;95574.63;5115302;28;20462;-61
2021/12/08 09:57:07;;;;;;;1.10;1.00;;;;;;;7.71;55.16;95582.63;5115283;27;20501;-62
2021/12/08 09:59:35;;;;;;;1.33;1.23;;;;;;;7.63;55.07;95584.72;5115214;28;20058;-63
2021/12/08 10:02:04;;;;;;;1.90;1.50;;;;;;;7.61;56.21;95580.50;5114836;28;20080;-62
2021/12/08 10:04:30;;;;;;;3.45;2.50;;;;;;;7.49;54.75;95584.44;5115048;28;20103;-63
2021/12/08 10:06:59;;;;;;;2.85;1.50;;;;;;;7.36;54.89;95584.06;5115152;28;20016;-63
2021/12/08 10:09:25;;;;;;;1.58;1.48;;;;;;;7.24;56.79;95583.66;5114977;28;20481;-63
2021/12/08 10:11:54;;;;;;;1.85;1.33;;;;;;;7.16;56.39;95578.75;5114919;28;20030;-60
2021/12/08 10:14:20;;;;;;;1.30;1.20;;;;;;;7.28;55.82;95579.19;5114829;28;20024;-65
2021/12/08 10:16:47;;;;;;;1.38;1.27;;;;;;;7.35;55.58;95582.38;5114997;28;20016;-66
2021/12/08 10:19:15;;;;;;;1.80;1.50;;;;;;;7.50;57.93;95576.56;5114767;28;20409;-64
2021/12/08 10:21:41;;;;;;;2.15;1.67;;;;;;;7.53;55.61;95576.41;5114869;28;20035;-63
2021/12/08 10:24:16;;;;;;;2.05;1.70;;;;;;;7.54;55.51;95578.13;5114618;28;20012;-61
2021/12/08 10:26:42;;;;;;;1.45;1.30;;;;;;;7.58;54.93;95571.03;5114720;28;20077;-64
2021/12/08 10:29:08;;;;;;;1.85;1.60;;;;;;;7.59;56.25;95575.34;5114475;28;20042;-64
2021/12/08 10:31:41;;;;;;;2.08;1.88;;;;;;;7.64;55.71;95570.78;5114569;28;20016;-63
2021/12/08 10:37:07;;;;;;;2.10;1.73;;;;;;;7.71;54.33;95574.81;5114040;28;20057;-65
2021/12/08 10:39:47;;;;;;;2.33;1.90;;;;;;;7.85;58.17;95568.19;5114493;28;20127;-61
2021/12/08 10:42:14;;;;;;;2.10;1.60;;;;;;;7.89;55.17;95568.91;5114550;28;20488;-64
2021/12/08 10:44:50;;;;;;;1.95;1.67;;;;;;;8.14;57.31;95567.81;5114382;28;20034;-63
2021/12/08 10:47:49;;;;;;;1.83;1.48;;;;;;;8.31;55.41;95574.91;5114481;28;20039;-61
2021/12/08 10:56:13;;;;;;;2.35;1.42;;;;;;;8.34;53.91;95564.38;5114506;28;20074;-61
2021/12/08 10:58:47;;;;;;;2.33;1.58;;;;;;;8.42;55.67;95570.06;5114178;28;20028;-64
2021/12/08 11:01:18;;;;;;;1.90;1.70;;;;;;;8.27;53.53;95565.53;5114021;28;20054;-62
2021/12/08 11:03:45;;;;;;;1.65;1.55;;;;;;;8.30;54.38;95565.38;5114125;28;20024;-62
2021/12/08 11:06:15;;;;;;;1.77;1.63;;;;;;;8.32;54.39;95563.56;5114049;28;20016;-64
2021/12/08 11:08:44;;;;;;;1.67;1.52;;;;;;;8.37;53.65;95571.19;5113886;28;20031;-61
2021/12/08 11:11:20;;;;;;;1.20;1.10;;;;;;;8.36;52.05;95570.31;5113833;28;20040;-60
2021/12/08 11:13:55;;;;;;;1.45;1.35;;;;;;;8.28;52.91;95568.06;5114213;28;20062;-64
2021/12/08 11:16:31;;;;;;;1.30;1.20;;;;;;;8.21;53.24;95577.06;5113856;27;20027;-61
2021/12/08 11:19:10;;;;;;;1.05;1.05;;;;;;;8.20;53.47;95586.66;5113519;28;20024;-64
2021/12/08 11:21:57;;;;;;;1.42;1.25;;;;;;;8.34;55.21;95585.22;5113638;28;20393;-63
2021/12/08 11:24:38;;;;;;;1.88;1.40;;;;;;;8.46;56.26;95587.25;5113673;28;20036;-65
2021/12/08 11:27:07;;;;;;;3.50;2.00;;;;;;;8.39;56.92;95591.03;5113666;28;20027;-62
2021/12/08 11:29:36;;;;;;;4.82;2.05;;;;;;;8.47;58.40;95582.88;5113606;28;20111;-60
2021/12/08 11:32:05;;;;;;;2.25;2.05;;;;;;;8.63;58.61;95585.66;5113666;28;20024;-63
2021/12/08 11:34:32;;;;;;;2.50;2.17;;;;;;;8.63;58.33;95585.66;5113543;28;20106;-63
2021/12/08 11:37:02;;;;;;;3.17;2.63;;;;;;;8.61;60.01;95587.50;5113459;28;20028;-66
2021/12/08 11:39:31;;;;;;;3.38;2.55;;;;;;;8.57;59.96;95593.75;5113833;28;20039;-61
2021/12/08 11:42:12;;;;;;;3.92;2.83;;;;;;;8.62;58.96;95593.56;5113509;28;20098;-63
2021/12/08 11:44:43;;;;;;;3.47;2.78;;;;;;;8.61;60.69;95591.88;5113722;28;20074;-63
2021/12/08 11:47:11;;;;;;;23.23;13.45;;;;;;;8.65;62.22;95588.22;5113493;28;20097;-64
2021/12/08 11:49:47;;;;;;;4.75;3.33;;;;;;;8.65;62.44;95591.69;5116360;28;20024;-62
2021/12/08 11:52:19;;;;;;;5.07;2.70;;;;;;;8.65;60.75;95585.59;5117753;28;20481;-63
2021/12/08 11:54:50;;;;;;;2.67;2.47;;;;;;;8.59;59.61;95600.63;5117913;28;20031;-60
2021/12/08 11:57:37;;;;;;;3.88;3.05;;;;;;;8.54;62.37;95596.50;5117729;28;20110;-63
2021/12/08 12:00:20;;;;;;;7.18;2.97;;;;;;;8.61;61.38;95599.69;5117510;27;20020;-65
2021/12/08 12:02:58;;;;;;;2.85;2.65;;;;;;;8.60;61.90;95598.84;5117511;28;20438;-65
2021/12/08 12:05:39;;;;;;;3.45;2.53;;;;;;;8.44;61.94;95594.31;5117484;28;20052;-64
2021/12/08 12:08:08;;;;;;;3.78;2.97;;;;;;;8.40;61.95;95603.16;5117654;28;20031;-65
2021/12/08 12:10:39;;;;;;;2.97;2.65;;;;;;;8.47;62.44;95611.56;5117375;28;20026;-61
2021/12/08 12:13:08;;;;;;;4.15;3.20;;;;;;;8.39;62.45;95617.09;5117340;28;20055;-65
2021/12/08 12:15:35;;;;;;;6.20;2.97;;;;;;;8.38;62.51;95623.25;5117322;28;20023;-62
2021/12/08 12:18:02;;;;;;;4.05;3.35;;;;;;;8.38;62.47;95622.38;5117362;28;20069;-64
2021/12/08 12:20:39;;;;;;;3.17;2.88;;;;;;;8.27;62.07;95617.63;5116975;28;20043;-64
2021/12/08 12:23:22;;;;;;;3.85;3.22;;;;;;;8.18;61.61;95624.09;5117104;28;20374;-61
2021/12/08 12:26:04;;;;;;;3.35;2.83;;;;;;;8.08;62.59;95627.13;5117006;28;20434;-60
2021/12/08 12:28:58;;;;;;;7.68;2.85;;;;;;;7.93;63.00;95628.59;5117041;28;20024;-64
2021/12/08 12:31:30;;;;;;;3.17;2.75;;;;;;;7.94;63.36;95630.28;5117099;28;20040;-61
2021/12/08 12:33:56;;;;;;;3.25;2.95;;;;;;;7.99;63.57;95631.84;5117098;28;20026;-60
2021/12/08 12:36:28;;;;;;;3.03;2.83;;;;;;;7.93;61.67;95632.97;5116842;28;20381;-61
2021/12/08 12:39:16;;;;;;;3.10;2.78;;;;;;;7.88;62.01;95638.34;5116753;28;20115;-59
2021/12/08 12:41:43;;;;;;;4.35;2.97;;;;;;;7.88;60.02;95643.56;5116572;28;20015;-64
2021/12/08 12:44:22;;;;;;;4.03;2.92;;;;;;;7.81;58.82;95647.34;5116600;28;20030;-63
2021/12/08 12:47:08;;;;;;;4.68;3.03;;;;;;;7.53;59.88;95653.66;5116723;27;20088;-62
2021/12/08 12:49:35;;;;;;;4.93;3.38;;;;;;;7.26;60.14;95659.91;5116533;28;20039;-63
2021/12/08 12:52:05;;;;;;;4.82;3.38;;;;;;;7.07;60.82;95663.19;5116569;28;20035;-60
2021/12/08 12:54:31;;;;;;;4.95;3.25;;;;;;;6.88;61.42;95663.06;5116435;28;20020;-64
2021/12/08 12:56:58;;;;;;;4.03;2.92;;;;;;;6.63;61.09;95666.56;5116556;28;20120;-64
2021/12/08 12:59:36;;;;;;;3.78;3.10;;;;;;;6.29;62.02;95666.00;5116252;28;20028;-64